Time;durP1;ratioP1;P1;durP2;ratioP2;P2;SDS_P1;SDS_P2;PMS_P1;PMS_P2;Temp;Humidity;BMP_temperature;BMP_pressure;BME280_temperature;BME280_humidity;BME280_pressure;Samples;Min_cycle;Max_cycle;Signal;HPM_P1;HPM_P2
2023/01/07 00:01:33;;;;;;;31.92;24.17;;;9.80;99.90;;;;;;5076205;28;20048;-68
2023/01/07 00:04:00;;;;;;;30.13;24.50;;;9.80;99.90;;;;;;5080909;28;20047;-68
2023/01/07 00:06:28;;;;;;;37.00;25.13;;;9.90;99.90;;;;;;5054024;28;20712;-68
2023/01/07 00:08:56;;;;;;;33.03;25.15;;;9.90;99.90;;;;;;5081146;28;20048;-68
2023/01/07 00:11:27;;;;;;;39.75;27.50;;;9.90;99.90;;;;;;5062331;28;20511;-68
2023/01/07 00:13:54;;;;;;;35.97;25.45;;;10.00;99.90;;;;;;5057156;28;20055;-68
2023/01/07 00:16:23;;;;;;;34.15;26.17;;;10.00;99.90;;;;;;5062588;28;20361;-68
2023/01/07 00:18:50;;;;;;;30.48;24.60;;;10.00;99.90;;;;;;5063054;28;20419;-68
2023/01/07 00:21:18;;;;;;;36.00;25.60;;;10.00;99.90;;;;;;5077044;28;20407;-69
2023/01/07 00:23:45;;;;;;;33.50;24.73;;;10.00;99.90;;;;;;5045243;28;20118;-66
2023/01/07 00:26:15;;;;;;;33.20;25.45;;;10.10;99.90;;;;;;5062040;28;20036;-65
2023/01/07 00:28:43;;;;;;;32.30;25.17;;;10.10;99.90;;;;;;5058421;28;20036;-65
2023/01/07 00:31:17;;;;;;;30.30;23.92;;;10.10;99.90;;;;;;5073702;28;20037;-66
2023/01/07 00:36:19;;;;;;;31.33;24.85;;;10.10;99.90;;;;;;5063410;28;20506;-65
2023/01/07 00:38:46;;;;;;;31.17;24.35;;;10.20;99.90;;;;;;5080538;28;20131;-65
2023/01/07 00:41:11;;;;;;;36.30;27.42;;;10.20;99.90;;;;;;5076058;28;20435;-65
2023/01/07 00:43:38;;;;;;;37.40;28.10;;;10.20;99.90;;;;;;5079189;28;20039;-66
2023/01/07 00:46:04;;;;;;;36.53;26.40;;;10.20;99.90;;;;;;5060215;28;20527;-65
2023/01/07 00:48:31;;;;;;;39.92;27.67;;;10.20;99.90;;;;;;5081086;28;20071;-66
2023/01/07 00:50:57;;;;;;;39.47;27.45;;;10.20;99.90;;;;;;5077401;28;20195;-66
2023/01/07 00:53:24;;;;;;;41.17;29.65;;;10.20;99.90;;;;;;5082621;28;20575;-65
2023/01/07 00:55:50;;;;;;;43.30;27.63;;;10.20;99.90;;;;;;5083217;28;20055;-66
2023/01/07 00:58:20;;;;;;;41.05;26.63;;;10.30;99.90;;;;;;5082541;28;20024;-65
2023/01/07 01:00:46;;;;;;;41.15;28.38;;;10.30;99.90;;;;;;5066546;28;20039;-66
2023/01/07 01:03:12;;;;;;;34.50;26.73;;;10.30;99.90;;;;;;5086246;28;20495;-65
2023/01/07 01:05:38;;;;;;;39.97;27.63;;;10.40;99.90;;;;;;5064261;28;20145;-66
2023/01/07 01:08:05;;;;;;;50.47;30.38;;;10.30;99.90;;;;;;5081974;28;20106;-66
2023/01/07 01:10:30;;;;;;;34.65;26.38;;;10.30;99.90;;;;;;5084324;28;20072;-65
2023/01/07 01:12:56;;;;;;;40.97;27.95;;;10.40;99.90;;;;;;5069494;28;20075;-65
2023/01/07 01:15:22;;;;;;;41.63;28.23;;;10.40;99.90;;;;;;5048742;28;20391;-65
2023/01/07 01:17:50;;;;;;;36.88;27.83;;;10.40;99.90;;;;;;5057830;28;20044;-65
2023/01/07 01:20:16;;;;;;;39.45;27.52;;;10.40;99.90;;;;;;5064787;28;20101;-65
2023/01/07 01:22:42;;;;;;;36.65;26.65;;;10.40;99.90;;;;;;5065152;28;20054;-66
2023/01/07 01:25:09;;;;;;;39.42;29.35;;;10.40;99.90;;;;;;5068596;28;20076;-65
2023/01/07 01:27:35;;;;;;;34.55;27.33;;;10.40;99.90;;;;;;5083088;28;20042;-65
2023/01/07 01:30:01;;;;;;;35.80;27.13;;;10.50;99.90;;;;;;5081994;28;20044;-65
2023/01/07 01:32:27;;;;;;;38.80;27.90;;;10.50;99.90;;;;;;5083065;28;20448;-65
2023/01/07 01:34:53;;;;;;;33.92;27.10;;;10.50;99.90;;;;;;5082944;28;20098;-65
2023/01/07 01:37:19;;;;;;;38.30;28.90;;;10.50;99.90;;;;;;5081917;28;20071;-65
2023/01/07 01:39:45;;;;;;;35.45;28.52;;;10.50;99.90;;;;;;5080583;28;20048;-69
2023/01/07 01:42:16;;;;;;;33.25;26.83;;;10.50;99.90;;;;;;5064332;28;20484;-69
2023/01/07 01:44:53;;;;;;;37.53;29.02;;;10.50;99.90;;;;;;5086085;28;20044;-69
2023/01/07 01:47:39;;;;;;;35.33;27.20;;;10.50;99.90;;;;;;5080305;28;20087;-69
2023/01/07 01:50:16;;;;;;;32.53;26.95;;;10.50;99.90;;;;;;5084442;28;20103;-69
2023/01/07 01:53:05;;;;;;;31.42;26.50;;;10.50;99.90;;;;;;5083014;28;20036;-69
2023/01/07 01:55:58;;;;;;;29.30;25.73;;;10.50;99.90;;;;;;5081633;28;20041;-68
2023/01/07 01:58:36;;;;;;;28.60;25.23;;;10.60;99.90;;;;;;5064488;28;20399;-69
2023/01/07 02:01:02;;;;;;;30.27;25.52;;;10.60;99.90;;;;;;5082764;28;20728;-66
2023/01/07 02:03:30;;;;;;;33.95;28.13;;;10.50;99.90;;;;;;5081818;28;20040;-66
2023/01/07 02:05:56;;;;;;;32.08;27.35;;;10.50;99.90;;;;;;5060241;28;20503;-66
2023/01/07 02:08:22;;;;;;;30.00;25.60;;;10.60;99.90;;;;;;5064208;28;20387;-66
2023/01/07 02:11:01;;;;;;;33.30;26.77;;;10.50;99.90;;;;;;5080122;28;20029;-65
2023/01/07 02:14:08;;;;;;;28.10;24.95;;;10.60;99.90;;;;;;5069336;28;20484;-65
2023/01/07 02:17:24;;;;;;;29.25;25.23;;;10.60;99.90;;;;;;5057245;28;20052;-65
2023/01/07 02:20:18;;;;;;;32.70;26.75;;;10.50;99.90;;;;;;5046513;28;20131;-65
2023/01/07 02:23:05;;;;;;;26.63;23.53;;;10.50;99.90;;;;;;5059284;28;20091;-68
2023/01/07 02:25:49;;;;;;;29.75;25.08;;;10.50;99.90;;;;;;5068262;28;20120;-68
2023/01/07 02:29:05;;;;;;;27.83;24.15;;;10.50;99.90;;;;;;5063752;28;20047;-69
2023/01/07 02:31:40;;;;;;;28.35;24.83;;;10.50;99.90;;;;;;5044727;28;20111;-69
2023/01/07 02:34:11;;;;;;;29.13;25.63;;;10.50;99.90;;;;;;5077669;28;20268;-68
2023/01/07 02:36:55;;;;;;;31.67;27.90;;;10.50;99.90;;;;;;5065622;28;20561;-68
2023/01/07 02:39:30;;;;;;;26.88;24.02;;;10.50;99.90;;;;;;5080655;28;20101;-68
2023/01/07 02:41:58;;;;;;;29.95;25.33;;;10.50;99.90;;;;;;5079921;28;20039;-68
2023/01/07 02:44:37;;;;;;;27.27;24.27;;;10.50;99.90;;;;;;5061468;28;20041;-68
2023/01/07 02:47:08;;;;;;;30.02;24.63;;;10.50;99.90;;;;;;5066223;28;20043;-69
2023/01/07 02:49:34;;;;;;;27.60;24.58;;;10.50;99.90;;;;;;5066125;28;20040;-70
2023/01/07 02:52:17;;;;;;;26.40;23.55;;;10.50;99.90;;;;;;5061376;28;20044;-68
2023/01/07 02:54:45;;;;;;;26.80;23.13;;;10.50;99.90;;;;;;5057983;28;20099;-68
2023/01/07 02:57:43;;;;;;;25.00;22.48;;;10.50;99.90;;;;;;5067201;28;20067;-68
2023/01/07 03:00:16;;;;;;;24.65;21.98;;;10.50;99.90;;;;;;5076087;28;20106;-68
2023/01/07 03:02:51;;;;;;;26.08;22.25;;;10.50;99.90;;;;;;5081496;28;20035;-68
2023/01/07 03:05:50;;;;;;;26.58;23.77;;;10.40;99.90;;;;;;5053287;28;20610;-68
2023/01/07 03:08:41;;;;;;;25.10;22.40;;;10.50;99.90;;;;;;5043297;28;20387;-68
2023/01/07 03:11:09;;;;;;;24.75;22.15;;;10.50;99.90;;;;;;5080736;28;20532;-68
2023/01/07 03:13:47;;;;;;;27.67;23.83;;;10.40;99.90;;;;;;5063781;28;20047;-68
2023/01/07 03:16:46;;;;;;;26.52;22.67;;;10.40;99.90;;;;;;5062965;28;20048;-68
2023/01/07 03:19:18;;;;;;;24.23;21.65;;;10.40;99.90;;;;;;5058309;28;20044;-68
2023/01/07 03:21:47;;;;;;;24.35;21.23;;;10.40;99.90;;;;;;5078658;28;20307;-67
2023/01/07 03:24:15;;;;;;;26.63;22.58;;;10.40;99.90;;;;;;5076612;28;20365;-68
2023/01/07 03:26:51;;;;;;;26.08;21.55;;;10.40;99.90;;;;;;5083218;28;20495;-68
2023/01/07 03:29:18;;;;;;;26.45;21.77;;;10.30;99.90;;;;;;5081217;28;20037;-68
2023/01/07 03:31:56;;;;;;;25.33;22.48;;;10.30;99.90;;;;;;5059313;28;20452;-68
2023/01/07 03:34:24;;;;;;;25.85;22.85;;;10.30;99.90;;;;;;5076859;28;20036;-68
2023/01/07 03:36:55;;;;;;;24.48;21.88;;;10.30;99.90;;;;;;5079837;28;20051;-68
2023/01/07 03:39:25;;;;;;;23.80;21.25;;;10.30;99.90;;;;;;5057633;28;20090;-68
2023/01/07 03:44:36;;;;;;;22.02;19.77;;;10.30;99.90;;;;;;5081838;28;20074;-68
2023/01/07 03:47:02;;;;;;;22.30;20.00;;;10.30;99.90;;;;;;5081182;28;20522;-69
2023/01/07 03:49:28;;;;;;;22.98;19.58;;;10.30;99.90;;;;;;5077321;28;20043;-69
2023/01/07 03:51:53;;;;;;;21.35;19.17;;;10.30;99.90;;;;;;5077297;28;20112;-68
2023/01/07 03:54:23;;;;;;;22.65;19.42;;;10.30;99.90;;;;;;5081051;28;20051;-68
2023/01/07 03:56:48;;;;;;;22.08;19.52;;;10.30;99.90;;;;;;5054959;28;20048;-68
2023/01/07 03:59:14;;;;;;;19.50;17.40;;;10.20;99.90;;;;;;5062593;28;20039;-68
2023/01/07 04:01:40;;;;;;;21.15;18.85;;;10.20;99.90;;;;;;5074577;28;20042;-69
2023/01/07 04:04:06;;;;;;;19.90;17.80;;;10.20;99.90;;;;;;5080638;28;20067;-68
2023/01/07 04:06:31;;;;;;;22.30;17.67;;;10.20;99.90;;;;;;5076673;28;20040;-68
2023/01/07 04:08:57;;;;;;;20.08;17.35;;;10.20;99.90;;;;;;5057634;28;20043;-68
2023/01/07 04:11:23;;;;;;;18.80;16.33;;;10.20;99.90;;;;;;5063259;28;20036;-68
2023/01/07 04:13:49;;;;;;;17.77;15.85;;;10.20;99.90;;;;;;5080036;28;20127;-68
2023/01/07 04:16:14;;;;;;;20.95;18.13;;;10.20;99.90;;;;;;5082033;28;20119;-68
2023/01/07 04:18:40;;;;;;;19.60;17.50;;;10.20;99.90;;;;;;5074884;28;20089;-68
2023/01/07 04:21:06;;;;;;;21.33;17.02;;;10.20;99.90;;;;;;5067007;28;20040;-68
2023/01/07 04:23:32;;;;;;;20.88;16.92;;;10.20;99.90;;;;;;5080684;28;20040;-69
2023/01/07 04:25:57;;;;;;;18.52;16.73;;;10.20;99.90;;;;;;5062482;28;20036;-68
2023/01/07 04:28:23;;;;;;;19.90;15.88;;;10.20;99.90;;;;;;5082104;28;20040;-68
2023/01/07 04:30:49;;;;;;;20.35;16.73;;;10.20;99.90;;;;;;5083326;28;20051;-68
2023/01/07 04:33:15;;;;;;;17.98;16.17;;;10.20;99.90;;;;;;5064844;28;20056;-68
2023/01/07 04:35:41;;;;;;;19.20;15.95;;;10.20;99.90;;;;;;5087292;28;20039;-68
2023/01/07 04:38:07;;;;;;;21.40;15.65;;;10.20;99.90;;;;;;5081206;28;20068;-68
2023/01/07 04:40:33;;;;;;;19.85;15.35;;;10.20;99.90;;;;;;5081980;28;20697;-69
2023/01/07 04:42:58;;;;;;;19.38;16.88;;;10.20;99.90;;;;;;5064897;28;20119;-69
2023/01/07 04:45:24;;;;;;;16.25;14.55;;;10.20;99.90;;;;;;5084559;28;20040;-69
2023/01/07 04:47:54;;;;;;;17.63;15.18;;;10.20;99.90;;;;;;5080421;28;20428;-69
2023/01/07 04:50:20;;;;;;;20.90;15.60;;;10.20;99.90;;;;;;5066296;28;20348;-69
2023/01/07 04:52:46;;;;;;;19.08;15.05;;;10.20;99.90;;;;;;5080669;28;20050;-69
2023/01/07 04:55:12;;;;;;;15.55;13.57;;;10.20;99.90;;;;;;5054652;28;20495;-69
2023/01/07 04:57:37;;;;;;;17.88;14.98;;;10.20;99.90;;;;;;5077981;28;20040;-69
2023/01/07 05:00:05;;;;;;;19.95;15.43;;;10.20;99.90;;;;;;5088284;28;20040;-69
2023/01/07 05:02:30;;;;;;;18.23;14.63;;;10.20;99.90;;;;;;5083210;28;20089;-68
2023/01/07 05:04:56;;;;;;;18.25;13.93;;;10.20;99.90;;;;;;5081915;28;20036;-69
2023/01/07 05:07:22;;;;;;;17.88;13.55;;;10.20;99.90;;;;;;5080001;28;20051;-69
2023/01/07 05:09:48;;;;;;;19.88;13.50;;;10.10;99.90;;;;;;5064497;28;20167;-69
2023/01/07 05:12:13;;;;;;;16.48;14.77;;;10.20;99.90;;;;;;5081662;28;20060;-68
2023/01/07 05:14:39;;;;;;;15.60;12.38;;;10.20;99.90;;;;;;5059194;28;20127;-69
2023/01/07 05:17:05;;;;;;;17.80;13.80;;;10.20;99.90;;;;;;5083465;28;20115;-69
2023/01/07 05:19:30;;;;;;;15.15;11.75;;;10.20;99.90;;;;;;5080932;28;20040;-69
2023/01/07 05:21:56;;;;;;;18.35;12.52;;;10.20;99.90;;;;;;5065919;28;20590;-69
2023/01/07 05:24:22;;;;;;;14.57;11.70;;;10.20;99.90;;;;;;5060047;28;20134;-69
2023/01/07 05:26:47;;;;;;;15.38;11.65;;;10.20;99.90;;;;;;5082553;28;20470;-69
2023/01/07 05:29:13;;;;;;;14.60;11.00;;;10.10;99.90;;;;;;5082392;28;20115;-69
2023/01/07 05:31:39;;;;;;;13.85;10.60;;;10.10;99.90;;;;;;5063575;28;20035;-69
2023/01/07 05:34:05;;;;;;;12.18;10.65;;;10.10;99.90;;;;;;5059691;28;20036;-68
2023/01/07 05:36:31;;;;;;;16.92;10.63;;;10.20;99.90;;;;;;5065870;28;20093;-68
2023/01/07 05:38:57;;;;;;;12.68;10.68;;;10.20;99.90;;;;;;5082499;28;20032;-68
2023/01/07 05:41:22;;;;;;;11.95;10.55;;;10.20;99.90;;;;;;5066043;28;20048;-68
2023/01/07 05:43:48;;;;;;;11.85;10.57;;;10.10;99.90;;;;;;5065234;28;20202;-68
2023/01/07 05:46:14;;;;;;;11.77;10.00;;;10.20;99.90;;;;;;5083704;28;20047;-68
2023/01/07 05:48:40;;;;;;;11.43;9.90;;;10.20;99.90;;;;;;5080947;28;20129;-68
2023/01/07 05:51:06;;;;;;;12.00;10.50;;;10.10;99.90;;;;;;5084033;28;20166;-68
2023/01/07 05:53:32;;;;;;;11.55;10.35;;;10.10;99.90;;;;;;5083135;28;20499;-68
2023/01/07 05:55:59;;;;;;;13.63;10.02;;;10.10;99.90;;;;;;5066421;28;20089;-68
2023/01/07 05:58:26;;;;;;;10.95;9.82;;;10.20;99.90;;;;;;5065855;28;20070;-68
2023/01/07 06:00:52;;;;;;;13.43;11.05;;;10.20;99.90;;;;;;5079313;28;20035;-68
2023/01/07 06:03:20;;;;;;;11.73;9.75;;;10.10;99.90;;;;;;5062051;28;20082;-68
2023/01/07 06:05:46;;;;;;;13.13;10.18;;;10.20;99.90;;;;;;5075984;28;20036;-68
2023/01/07 06:08:12;;;;;;;16.13;9.50;;;10.10;99.90;;;;;;5063076;28;20071;-68
2023/01/07 06:10:38;;;;;;;12.18;9.52;;;10.10;99.90;;;;;;5080477;28;20072;-68
2023/01/07 06:13:04;;;;;;;10.40;8.55;;;10.10;99.90;;;;;;5064062;28;20457;-68
2023/01/07 06:15:30;;;;;;;11.38;8.80;;;10.10;99.90;;;;;;5070118;28;20146;-68
2023/01/07 06:17:56;;;;;;;10.82;8.65;;;10.10;99.90;;;;;;5088213;28;20032;-68
2023/01/07 06:20:22;;;;;;;10.88;8.43;;;10.20;99.90;;;;;;5067627;28;20039;-68
2023/01/07 06:22:48;;;;;;;10.25;8.93;;;10.20;99.90;;;;;;5081447;28;20131;-68
2023/01/07 06:25:14;;;;;;;10.20;8.77;;;10.20;99.90;;;;;;5085184;28;20107;-68
2023/01/07 06:27:40;;;;;;;11.95;8.00;;;10.20;99.90;;;;;;5066723;28;20353;-67
2023/01/07 06:30:08;;;;;;;13.43;8.68;;;10.20;99.90;;;;;;5088277;28;20028;-67
2023/01/07 06:32:41;;;;;;;11.85;8.10;;;10.20;99.90;;;;;;5082264;28;20055;-67
2023/01/07 06:35:09;;;;;;;11.67;8.63;;;10.20;99.90;;;;;;5085913;28;20042;-68
2023/01/07 06:37:36;;;;;;;9.10;7.72;;;10.20;99.90;;;;;;5069431;28;20597;-67
2023/01/07 06:40:01;;;;;;;10.93;8.15;;;10.20;99.90;;;;;;5086441;28;20347;-68
2023/01/07 06:42:27;;;;;;;8.90;7.20;;;10.20;99.90;;;;;;5063462;28;20048;-68
2023/01/07 06:44:53;;;;;;;8.73;7.88;;;10.20;99.90;;;;;;5080356;28;20093;-67
2023/01/07 06:47:19;;;;;;;9.27;8.23;;;10.10;99.90;;;;;;5086490;28;20044;-68
2023/01/07 06:49:44;;;;;;;10.68;7.85;;;10.20;99.90;;;;;;5086645;28;20480;-68
2023/01/07 06:52:10;;;;;;;9.00;7.25;;;10.20;99.90;;;;;;5087077;28;20032;-68
2023/01/07 06:54:36;;;;;;;10.63;7.40;;;10.20;99.90;;;;;;5067193;28;20078;-68
2023/01/07 06:57:02;;;;;;;10.80;7.20;;;10.10;99.90;;;;;;5086799;28;20419;-68
2023/01/07 06:59:28;;;;;;;7.47;6.78;;;10.10;99.90;;;;;;5082178;28;20044;-68
2023/01/07 07:01:54;;;;;;;9.95;6.88;;;10.10;99.90;;;;;;5083231;28;20063;-68
2023/01/07 07:04:20;;;;;;;8.30;6.80;;;10.20;99.90;;;;;;5081868;28;20123;-68
2023/01/07 07:06:46;;;;;;;9.75;7.05;;;10.10;99.90;;;;;;5067706;28;20155;-68
2023/01/07 07:09:12;;;;;;;8.07;6.70;;;10.10;99.90;;;;;;5081336;28;20036;-68
2023/01/07 07:11:38;;;;;;;7.97;6.30;;;10.10;99.90;;;;;;5083380;28;20349;-68
2023/01/07 07:14:04;;;;;;;6.88;6.13;;;10.10;99.90;;;;;;5083100;28;20024;-68
2023/01/07 07:16:29;;;;;;;9.38;5.90;;;10.10;99.90;;;;;;5079533;28;20054;-67
2023/01/07 07:18:55;;;;;;;8.32;6.10;;;10.10;99.90;;;;;;5080975;28;20068;-68
2023/01/07 07:21:21;;;;;;;7.50;5.82;;;10.20;99.90;;;;;;5085095;28;20064;-68
2023/01/07 07:23:47;;;;;;;7.20;5.75;;;10.10;99.90;;;;;;5059312;28;20041;-68
2023/01/07 07:26:13;;;;;;;7.45;5.43;;;10.10;99.90;;;;;;5083880;28;20032;-68
2023/01/07 07:28:41;;;;;;;7.85;5.47;;;10.10;99.90;;;;;;5079974;28;20119;-68
2023/01/07 07:31:07;;;;;;;8.95;5.80;;;10.10;99.90;;;;;;5081750;28;20179;-68
2023/01/07 07:33:34;;;;;;;8.07;5.85;;;10.10;99.90;;;;;;5084360;28;20037;-68
2023/01/07 07:36:00;;;;;;;7.25;5.10;;;10.10;99.90;;;;;;5067313;28;20050;-68
2023/01/07 07:38:26;;;;;;;6.97;4.70;;;10.00;99.90;;;;;;5066237;28;20040;-68
2023/01/07 07:40:51;;;;;;;7.45;5.40;;;10.00;99.90;;;;;;5085289;28;20035;-68
2023/01/07 07:43:18;;;;;;;8.40;5.10;;;10.00;99.90;;;;;;5087712;28;20462;-68
2023/01/07 07:45:44;;;;;;;8.15;5.22;;;9.90;99.90;;;;;;5066998;28;20044;-68
2023/01/07 07:48:13;;;;;;;7.82;5.18;;;9.90;99.90;;;;;;5064930;28;20158;-68
2023/01/07 07:50:39;;;;;;;9.63;5.35;;;9.90;99.90;;;;;;5080583;28;20131;-68
2023/01/07 07:53:08;;;;;;;6.47;4.75;;;9.90;99.90;;;;;;5061542;28;20124;-68
2023/01/07 07:55:36;;;;;;;7.05;4.85;;;9.90;99.90;;;;;;5060933;28;20040;-67
2023/01/07 07:58:02;;;;;;;6.50;4.90;;;9.90;99.90;;;;;;5063289;28;20487;-68
2023/01/07 08:00:27;;;;;;;6.20;4.78;;;9.80;99.90;;;;;;5058815;28;20317;-68
2023/01/07 08:02:59;;;;;;;7.50;5.03;;;9.90;99.90;;;;;;5064749;28;20408;-67
2023/01/07 08:05:26;;;;;;;6.75;5.03;;;9.80;99.90;;;;;;5056829;28;20040;-68
2023/01/07 08:07:52;;;;;;;6.18;4.95;;;9.80;99.90;;;;;;5064859;28;20045;-68
2023/01/07 08:10:19;;;;;;;6.30;4.65;;;9.80;99.90;;;;;;5065001;28;20033;-68
2023/01/07 08:12:45;;;;;;;6.28;5.10;;;9.80;99.90;;;;;;5064411;28;20459;-68
2023/01/07 08:15:11;;;;;;;5.45;4.63;;;9.80;99.90;;;;;;5064353;28;20067;-68
2023/01/07 08:17:37;;;;;;;5.55;4.25;;;9.80;99.90;;;;;;5062067;28;20079;-68
2023/01/07 08:20:04;;;;;;;8.15;5.20;;;9.90;99.90;;;;;;5065088;28;20083;-68
2023/01/07 08:22:30;;;;;;;9.43;4.88;;;9.90;99.90;;;;;;5061902;28;20048;-67
2023/01/07 08:24:56;;;;;;;7.90;4.72;;;9.90;99.90;;;;;;5063093;28;20458;-68
2023/01/07 08:27:22;;;;;;;5.82;4.72;;;10.00;99.90;;;;;;5062810;28;20040;-68
2023/01/07 08:29:47;;;;;;;7.28;4.43;;;9.90;99.90;;;;;;5059182;28;20059;-68
2023/01/07 08:32:13;;;;;;;6.88;4.57;;;10.00;99.90;;;;;;5063410;28;20442;-68
2023/01/07 08:34:39;;;;;;;5.68;4.38;;;9.90;99.90;;;;;;5063081;28;20095;-68
2023/01/07 08:37:05;;;;;;;6.78;4.22;;;9.90;99.90;;;;;;5061730;28;20048;-68
2023/01/07 08:39:31;;;;;;;10.50;4.63;;;9.90;99.90;;;;;;5062550;28;20032;-68
2023/01/07 08:41:57;;;;;;;6.90;4.47;;;9.90;99.90;;;;;;5061694;28;20053;-68
2023/01/07 08:44:23;;;;;;;4.65;4.03;;;9.80;99.90;;;;;;5063558;28;20051;-68
2023/01/07 08:46:48;;;;;;;5.15;4.35;;;9.90;99.90;;;;;;5062206;28;20041;-68
2023/01/07 08:49:14;;;;;;;6.50;4.50;;;9.90;99.90;;;;;;5060012;28;20032;-68
2023/01/07 08:51:40;;;;;;;7.20;4.28;;;10.00;99.90;;;;;;5063076;28;20052;-68
2023/01/07 08:54:06;;;;;;;6.32;4.10;;;10.00;99.90;;;;;;5072512;28;20048;-68
2023/01/07 08:56:32;;;;;;;4.22;3.50;;;10.00;99.90;;;;;;5064127;28;20041;-67
2023/01/07 08:58:58;;;;;;;5.03;4.10;;;10.00;99.90;;;;;;5063172;28;20148;-68
2023/01/07 09:01:24;;;;;;;4.43;4.00;;;10.00;99.90;;;;;;5064708;28;20438;-68
2023/01/07 09:03:50;;;;;;;4.88;3.65;;;10.00;99.90;;;;;;5086627;28;20032;-67
2023/01/07 09:06:16;;;;;;;6.93;3.53;;;10.00;99.90;;;;;;5067997;28;20127;-68
2023/01/07 09:08:41;;;;;;;5.30;3.33;;;10.00;99.90;;;;;;5064833;28;20036;-68
2023/01/07 09:11:07;;;;;;;5.00;3.85;;;10.00;99.90;;;;;;5085857;28;20047;-68
2023/01/07 09:13:33;;;;;;;6.03;3.72;;;10.00;99.90;;;;;;5080568;28;20476;-68
2023/01/07 09:15:59;;;;;;;5.85;4.13;;;10.00;99.90;;;;;;5066359;28;20032;-68
2023/01/07 09:18:25;;;;;;;4.35;3.90;;;10.00;99.90;;;;;;5083863;28;20111;-68
2023/01/07 09:20:50;;;;;;;6.35;3.80;;;10.00;99.90;;;;;;5067016;28;20039;-68
2023/01/07 09:23:16;;;;;;;6.38;4.43;;;10.00;99.90;;;;;;5065359;28;20036;-68
2023/01/07 09:25:42;;;;;;;6.03;4.28;;;10.00;99.90;;;;;;5085738;28;20451;-68
2023/01/07 09:28:08;;;;;;;6.35;3.53;;;10.00;99.90;;;;;;5086834;28;20032;-68
2023/01/07 09:30:34;;;;;;;4.38;3.38;;;10.00;99.90;;;;;;5066925;28;20122;-68
2023/01/07 09:32:59;;;;;;;6.90;3.80;;;10.00;99.90;;;;;;5085743;28;20127;-68
2023/01/07 09:35:25;;;;;;;4.85;3.50;;;10.00;99.90;;;;;;5086893;28;20487;-68
2023/01/07 09:37:51;;;;;;;14.05;10.25;;;10.00;99.90;;;;;;5086529;28;20515;-68
2023/01/07 09:40:30;;;;;;;9.00;5.07;;;10.00;99.90;;;;;;5069980;28;20075;-68
2023/01/07 09:42:58;;;;;;;5.28;4.00;;;10.00;99.90;;;;;;5082347;28;20033;-68
2023/01/07 09:45:32;;;;;;;6.07;3.38;;;10.00;99.90;;;;;;5085115;28;20592;-68
2023/01/07 09:48:01;;;;;;;5.82;3.47;;;10.00;99.90;;;;;;5069751;28;20047;-68
2023/01/07 09:50:48;;;;;;;6.18;3.60;;;10.10;99.90;;;;;;5085921;28;20480;-68
2023/01/07 09:53:21;;;;;;;5.43;3.33;;;10.10;99.90;;;;;;5074705;28;20407;-68
2023/01/07 09:55:51;;;;;;;4.57;3.20;;;10.20;99.90;;;;;;5086059;28;20135;-68
2023/01/07 09:58:19;;;;;;;5.50;3.15;;;10.30;99.90;;;;;;5068179;28;20044;-68
2023/01/07 10:01:28;;;;;;;4.40;3.10;;;10.30;99.90;;;;;;5062949;28;20040;-68
2023/01/07 10:04:24;;;;;;;4.78;3.30;;;10.30;99.90;;;;;;5077126;28;20060;-68
2023/01/07 10:07:19;;;;;;;3.83;2.53;;;10.40;99.90;;;;;;5083021;28;20097;-68
2023/01/07 10:10:17;;;;;;;4.03;3.10;;;10.30;99.90;;;;;;5065684;28;20111;-68
2023/01/07 10:13:14;;;;;;;4.38;2.80;;;10.30;99.90;;;;;;5058694;28;20048;-68
2023/01/07 10:15:43;;;;;;;5.47;3.08;;;10.40;99.90;;;;;;5067648;28;20052;-68
2023/01/07 10:18:38;;;;;;;3.00;2.70;;;10.30;99.90;;;;;;5063083;28;20527;-68
2023/01/07 10:21:09;;;;;;;3.90;2.45;;;10.40;99.90;;;;;;5083362;28;20079;-67
2023/01/07 10:23:42;;;;;;;3.13;2.10;;;10.40;99.90;;;;;;5064424;28;20052;-68
2023/01/07 10:26:19;;;;;;;4.47;2.00;;;10.40;99.90;;;;;;5063588;28;20507;-68
2023/01/07 10:28:55;;;;;;;1.80;1.35;;;10.40;99.90;;;;;;5064309;28;20040;-68
2023/01/07 10:31:24;;;;;;;2.97;1.55;;;10.40;99.90;;;;;;5067342;28;20109;-68
2023/01/07 10:33:51;;;;;;;2.53;1.60;;;10.50;99.90;;;;;;5083280;28;20058;-68
2023/01/07 10:36:21;;;;;;;2.47;1.60;;;10.50;99.90;;;;;;5083833;28;20064;-68
2023/01/07 10:39:12;;;;;;;3.53;1.75;;;10.50;99.90;;;;;;5076869;28;20040;-68
2023/01/07 10:41:55;;;;;;;4.68;2.22;;;10.60;99.90;;;;;;5064543;28;20050;-69
2023/01/07 10:44:53;;;;;;;2.58;1.63;;;10.60;99.90;;;;;;5084828;28;20119;-68
2023/01/07 10:47:44;;;;;;;2.55;1.50;;;10.60;99.90;;;;;;5065563;28;20446;-68
2023/01/07 10:50:40;;;;;;;3.70;1.90;;;10.70;99.90;;;;;;5077931;28;20121;-69
2023/01/07 10:53:11;;;;;;;2.97;1.55;;;10.70;99.90;;;;;;5081726;28;20082;-69
2023/01/07 10:55:42;;;;;;;1.75;1.20;;;10.80;99.90;;;;;;5081221;28;20542;-69
2023/01/07 10:58:10;;;;;;;4.93;1.70;;;10.80;99.90;;;;;;5057077;28;20337;-69
2023/01/07 11:00:37;;;;;;;2.20;1.23;;;10.90;99.90;;;;;;5059455;28;20056;-69
2023/01/07 11:03:03;;;;;;;4.18;1.65;;;10.90;99.90;;;;;;5078759;28;20091;-68
2023/01/07 11:05:36;;;;;;;3.85;1.63;;;10.90;99.90;;;;;;5076566;28;20503;-69
2023/01/07 11:08:09;;;;;;;2.15;1.27;;;10.90;99.90;;;;;;5063886;28;20097;-68
2023/01/07 11:10:36;;;;;;;2.13;1.17;;;10.90;99.90;;;;;;5062209;28;20079;-66
2023/01/07 11:13:11;;;;;;;2.17;1.25;;;10.90;99.90;;;;;;5083334;28;20383;-66
2023/01/07 11:15:45;;;;;;;;;;;10.90;99.90;;;;;;5059562;28;20109;-65
2023/01/07 11:18:39;;;;;;;3.60;1.40;;;10.80;99.90;;;;;;5060593;28;19963;-65
2023/01/07 11:21:05;;;;;;;2.35;1.40;;;10.90;99.90;;;;;;5050659;28;20063;-66
2023/01/07 11:23:38;;;;;;;1.65;1.33;;;10.90;99.90;;;;;;5083616;28;20044;-68
2023/01/07 11:26:31;;;;;;;1.92;1.15;;;10.90;99.90;;;;;;5059646;28;20067;-68
2023/01/07 11:29:14;;;;;;;1.63;1.02;;;10.90;99.90;;;;;;5075994;28;20079;-69
2023/01/07 11:31:47;;;;;;;2.60;1.35;;;10.90;99.90;;;;;;5078306;28;20041;-68
2023/01/07 11:34:51;;;;;;;1.95;1.20;;;11.00;99.90;;;;;;5075017;28;20059;-68
2023/01/07 11:37:43;;;;;;;3.17;1.40;;;11.00;99.90;;;;;;4982514;28;20129;-68
2023/01/07 11:40:12;;;;;;;2.58;1.50;;;11.00;99.90;;;;;;4982819;28;20626;-68
2023/01/07 11:43:02;;;;;;;3.05;1.35;;;11.10;99.90;;;;;;5029306;28;20052;-68
2023/01/07 11:45:47;;;;;;;3.35;1.13;;;11.20;99.90;;;;;;5054442;28;20120;-68
2023/01/07 11:48:32;;;;;;;1.67;1.33;;;11.10;99.90;;;;;;5077036;28;20051;-68
2023/01/07 11:51:07;;;;;;;2.85;1.20;;;11.20;99.90;;;;;;5060395;28;20124;-68
2023/01/07 11:53:43;;;;;;;2.03;1.00;;;11.20;99.90;;;;;;5060756;28;20083;-69
2023/01/07 11:56:12;;;;;;;3.15;1.40;;;11.20;99.90;;;;;;5077527;28;20048;-68
2023/01/07 11:58:44;;;;;;;2.92;1.20;;;11.20;99.90;;;;;;5083376;28;20068;-68
2023/01/07 12:01:14;;;;;;;2.50;1.50;;;11.20;99.90;;;;;;5081366;28;20036;-68
2023/01/07 12:04:18;;;;;;;2.47;1.02;;;11.20;99.90;;;;;;5047955;28;20040;-68
2023/01/07 12:06:46;;;;;;;1.30;1.17;;;11.10;99.90;;;;;;5054529;28;20421;-69
2023/01/07 12:09:20;;;;;;;1.80;1.20;;;11.10;99.90;;;;;;5059878;28;20071;-68
2023/01/07 12:11:49;;;;;;;;;;;11.10;99.90;;;;;;5066302;28;20387;-68
2023/01/07 12:14:30;;;;;;;2.60;1.05;;;11.00;99.90;;;;;;5061247;28;20390;-68
2023/01/07 12:17:10;;;;;;;1.67;1.20;;;11.10;99.90;;;;;;5080395;28;20442;-68
2023/01/07 12:19:54;;;;;;;1.73;1.20;;;11.20;99.90;;;;;;5061314;28;20151;-68
2023/01/07 12:22:38;;;;;;;2.77;1.47;;;11.20;99.90;;;;;;5081183;28;20035;-68
2023/01/07 12:25:22;;;;;;;5.15;1.50;;;11.20;99.90;;;;;;5064756;28;20304;-68
2023/01/07 12:28:05;;;;;;;3.33;1.35;;;11.10;99.90;;;;;;5084324;28;20076;-68
2023/01/07 12:31:08;;;;;;;2.63;1.20;;;11.10;99.90;;;;;;5063326;28;20136;-68
2023/01/07 12:34:16;;;;;;;2.40;1.23;;;11.10;99.90;;;;;;5055331;28;20708;-67
2023/01/07 12:36:59;;;;;;;1.67;1.20;;;11.00;99.90;;;;;;5007868;28;20060;-67
2023/01/07 12:39:34;;;;;;;1.80;1.10;;;11.00;99.90;;;;;;5075205;28;20044;-67
2023/01/07 12:42:02;;;;;;;;;;;11.00;99.90;;;;;;5074557;28;20048;-68
2023/01/07 12:44:28;;;;;;;1.88;1.13;;;10.90;99.90;;;;;;5057647;28;19920;-68
2023/01/07 12:47:14;;;;;;;2.33;1.15;;;11.00;99.90;;;;;;5081524;28;20113;-68
2023/01/07 12:49:49;;;;;;;1.30;0.90;;;11.00;99.90;;;;;;5081974;28;20135;-68
2023/01/07 12:52:48;;;;;;;1.92;0.90;;;11.00;99.90;;;;;;5064827;28;20044;-68
2023/01/07 12:55:48;;;;;;;2.25;1.20;;;11.00;99.90;;;;;;5067996;28;20595;-68
2023/01/07 12:58:31;;;;;;;2.22;1.30;;;11.10;99.90;;;;;;5084318;28;20091;-67
2023/01/07 13:01:19;;;;;;;2.65;0.90;;;11.10;99.90;;;;;;5083364;28;20119;-68
2023/01/07 13:03:52;;;;;;;2.35;1.00;;;11.10;99.90;;;;;;5067820;28;20052;-68
2023/01/07 13:06:43;;;;;;;2.50;1.00;;;11.20;99.90;;;;;;5049693;28;20040;-68